Time;durP1;ratioP1;P1;durP2;ratioP2;P2;SDS_P1;SDS_P2;PMS_P1;PMS_P2;Temp;Humidity;BMP_temperature;BMP_pressure;BME280_temperature;BME280_humidity;BME280_pressure;Samples;Min_cycle;Max_cycle;Signal;HPM_P1;HPM_P2
2022/08/29 00:03:14;;;;;;;7.25;5.75;;;;;;;17.23;69.32;96128.06;10452772;27;96899;-62
2022/08/29 00:08:17;;;;;;;7.20;6.10;;;;;;;17.28;68.71;96122.97;10445472;27;98404;-61
2022/08/29 00:13:21;;;;;;;6.50;5.80;;;;;;;17.26;68.90;96118.91;10458729;27;97756;-63
2022/08/29 00:18:26;;;;;;;7.88;5.68;;;;;;;17.24;68.01;96119.09;10435493;27;97096;-62
2022/08/29 00:23:28;;;;;;;;;;;;;;;17.11;67.96;96126.91;10459757;27;96746;-63
2022/08/29 00:28:31;;;;;;;8.40;5.90;;;;;;;17.00;68.58;96131.72;10454027;27;96875;-62
2022/08/29 00:33:35;;;;;;;8.32;6.18;;;;;;;16.95;69.85;96133.28;10453300;27;96927;-62
2022/08/29 00:38:41;;;;;;;6.78;6.07;;;;;;;16.93;69.27;96133.47;10454892;27;96880;-63
2022/08/29 00:43:45;;;;;;;7.13;5.73;;;;;;;16.87;69.22;96136.88;10454622;27;98600;-61
2022/08/29 00:48:55;;;;;;;7.40;6.28;;;;;;;16.84;69.84;96132.00;10457083;27;97811;-63
2022/08/29 00:54:01;;;;;;;7.20;6.50;;;;;;;16.77;69.92;96139.84;10451165;27;96976;-61
2022/08/29 00:59:10;;;;;;;7.40;6.47;;;;;;;16.70;70.24;96146.84;10461733;27;96687;-66
2022/08/29 01:04:15;;;;;;;8.43;6.72;;;;;;;16.65;70.93;96145.78;10444251;27;97607;-62
2022/08/29 01:09:27;;;;;;;8.50;6.35;;;;;;;16.65;71.09;96153.69;10453318;27;96895;-61
2022/08/29 01:14:29;;;;;;;7.88;6.75;;;;;;;16.62;71.08;96158.34;10455498;27;97413;-62
2022/08/29 01:19:43;;;;;;;7.95;6.28;;;;;;;16.67;70.83;96147.22;10454860;27;96809;-62
2022/08/29 01:24:50;;;;;;;8.45;6.63;;;;;;;16.62;70.87;96149.59;10440251;27;96781;-62
2022/08/29 01:29:53;;;;;;;8.35;6.28;;;;;;;16.59;70.73;96150.81;10459826;27;96854;-63
2022/08/29 01:34:56;;;;;;;8.30;6.40;;;;;;;16.58;70.75;96143.88;10451110;27;96754;-61
2022/08/29 01:40:00;;;;;;;9.38;6.40;;;;;;;16.58;70.64;96143.88;10460107;27;98780;-66
2022/08/29 01:45:04;;;;;;;8.80;6.72;;;;;;;16.46;70.97;96134.03;10451414;27;97383;-62
2022/08/29 01:50:14;;;;;;;6.68;5.97;;;;;;;16.47;70.23;96152.31;10456056;27;97464;-62
2022/08/29 01:55:18;;;;;;;7.50;6.47;;;;;;;16.44;70.84;96150.03;10462499;27;96957;-61
2022/08/29 02:00:21;;;;;;;10.05;7.25;;;;;;;16.41;70.95;96153.03;10459874;27;96739;-63
2022/08/29 02:05:24;;;;;;;7.70;6.70;;;;;;;16.29;71.54;96146.63;10458378;27;97219;-63
2022/08/29 02:10:29;;;;;;;7.03;6.03;;;;;;;16.17;71.82;96157.66;10459719;27;97085;-61
2022/08/29 02:15:32;;;;;;;7.07;6.38;;;;;;;16.07;71.85;96141.31;10454581;27;98429;-61
2022/08/29 02:20:35;;;;;;;7.30;6.40;;;;;;;15.89;72.85;96133.78;10447111;27;96797;-63
2022/08/29 02:25:43;;;;;;;8.18;6.47;;;;;;;15.63;72.61;96128.97;10458430;27;97127;-61
2022/08/29 02:30:48;;;;;;;7.75;6.63;;;;;;;15.76;73.00;96150.22;10452188;27;97059;-64
2022/08/29 02:35:55;;;;;;;7.28;6.50;;;;;;;15.81;73.03;96144.44;10461841;27;97331;-62
2022/08/29 02:41:00;;;;;;;9.02;6.57;;;;;;;15.81;72.08;96147.88;10448853;27;97166;-61
2022/08/29 02:46:04;;;;;;;7.35;6.60;;;;;;;15.77;71.91;96158.94;10456932;27;96743;-62
2022/08/29 02:51:07;;;;;;;9.05;6.57;;;;;;;15.55;72.56;96158.00;10442049;27;96805;-63
2022/08/29 02:56:12;;;;;;;7.93;7.13;;;;;;;15.61;72.47;96159.94;10461445;27;97992;-61
2022/08/29 03:01:16;;;;;;;7.20;6.40;;;;;;;15.63;72.69;96144.78;10454361;27;98578;-61
2022/08/29 03:06:20;;;;;;;10.32;7.43;;;;;;;15.67;73.53;96153.97;10457834;27;97435;-61
2022/08/29 03:11:25;;;;;;;6.97;6.10;;;;;;;15.68;72.89;96148.50;10467728;27;97725;-61
2022/08/29 03:16:28;;;;;;;8.70;6.53;;;;;;;15.68;72.98;96152.94;10454642;27;96723;-61
2022/08/29 03:21:32;;;;;;;9.38;7.03;;;;;;;15.66;73.18;96147.06;10452897;27;98342;-61
2022/08/29 03:26:36;;;;;;;6.70;5.85;;;;;;;15.60;71.93;96150.41;10440522;27;96970;-62
2022/08/29 03:31:39;;;;;;;7.07;6.38;;;;;;;15.59;72.64;96151.41;10457135;27;96775;-62
2022/08/29 03:36:42;;;;;;;7.55;6.68;;;;;;;15.51;73.33;96147.00;10453410;27;97220;-65
2022/08/29 03:41:46;;;;;;;9.45;6.90;;;;;;;15.34;74.22;96150.81;10445802;27;97722;-61
2022/08/29 03:46:49;;;;;;;8.95;7.75;;;;;;;15.23;74.06;96149.44;10447664;27;97087;-64
2022/08/29 03:51:52;;;;;;;7.60;6.88;;;;;;;15.19;74.70;96132.38;10450073;27;97952;-62
2022/08/29 03:56:56;;;;;;;9.93;7.60;;;;;;;15.19;74.68;96137.66;10453882;27;97671;-61
2022/08/29 04:01:59;;;;;;;10.20;8.33;;;;;;;15.27;74.81;96145.47;10457813;27;96739;-62
2022/08/29 04:07:04;;;;;;;8.43;7.55;;;;;;;15.26;73.76;96151.72;10465582;27;96784;-62
2022/08/29 04:12:10;;;;;;;7.72;6.72;;;;;;;15.23;74.20;96154.69;10452856;27;97009;-61
2022/08/29 04:17:13;;;;;;;8.40;6.13;;;;;;;15.18;73.27;96157.84;10459411;27;97711;-62
2022/08/29 04:22:16;;;;;;;9.65;7.60;;;;;;;15.21;74.01;96156.69;10469935;27;97565;-61
2022/08/29 04:27:20;;;;;;;9.20;8.30;;;;;;;15.09;74.41;96169.47;10451179;27;98625;-61
2022/08/29 04:32:23;;;;;;;10.05;8.45;;;;;;;14.98;74.54;96180.41;10461581;27;96746;-62
2022/08/29 04:37:26;;;;;;;11.10;8.35;;;;;;;14.88;74.79;96175.38;10448797;27;97155;-61
2022/08/29 04:42:30;;;;;;;10.02;8.75;;;;;;;14.90;75.37;96187.34;10467949;27;97321;-62
2022/08/29 04:47:35;;;;;;;11.73;9.43;;;;;;;14.93;75.77;96196.72;10460855;27;97430;-62
2022/08/29 04:52:38;;;;;;;10.00;8.73;;;;;;;14.97;75.21;96198.00;10454396;27;97980;-61
2022/08/29 04:57:43;;;;;;;13.40;9.20;;;;;;;14.94;75.82;96198.38;10465137;27;97295;-62
2022/08/29 05:02:46;;;;;;;10.18;8.85;;;;;;;14.74;75.62;96203.25;10455595;27;97667;-62
2022/08/29 05:07:49;;;;;;;9.48;8.30;;;;;;;14.76;76.61;96214.41;10454606;27;96830;-62
2022/08/29 05:12:53;;;;;;;9.07;7.80;;;;;;;14.85;75.86;96212.53;10456546;27;98393;-69
2022/08/29 05:17:57;;;;;;;8.80;7.77;;;;;;;14.93;76.33;96217.75;10443610;27;96912;-69
2022/08/29 05:22:59;;;;;;;9.60;7.72;;;;;;;15.00;76.14;96218.69;10448705;27;96817;-68
2022/08/29 05:28:04;;;;;;;11.40;8.38;;;;;;;15.07;75.88;96229.34;10459690;27;97182;-68
2022/08/29 05:33:08;;;;;;;10.77;7.95;;;;;;;15.11;75.74;96231.44;10454487;27;98079;-70
2022/08/29 05:38:11;;;;;;;9.77;7.55;;;;;;;15.20;75.84;96239.25;10460432;27;97020;-68
2022/08/29 05:43:15;;;;;;;7.80;6.72;;;;;;;15.31;75.13;96242.28;10455781;27;97868;-68
2022/08/29 05:48:18;;;;;;;11.53;9.13;;;;;;;15.43;75.18;96244.50;10457563;27;97022;-67
2022/08/29 05:53:20;;;;;;;7.80;6.80;;;;;;;15.47;74.70;96243.97;10449134;27;97955;-68
2022/08/29 05:58:25;;;;;;;8.13;6.38;;;;;;;15.60;74.63;96246.03;10452129;27;97585;-67
2022/08/29 06:03:28;;;;;;;7.68;6.25;;;;;;;15.68;73.42;96247.75;10464671;27;97668;-67
2022/08/29 06:08:31;;;;;;;7.55;5.68;;;;;;;15.77;71.75;96251.97;10451836;27;97835;-67
2022/08/29 06:13:35;;;;;;;6.70;6.05;;;;;;;15.93;72.51;96250.13;10455459;27;96879;-68
2022/08/29 06:18:38;;;;;;;7.20;6.50;;;;;;;16.03;71.92;96255.97;10457135;27;97117;-66
2022/08/29 06:23:42;;;;;;;7.45;5.70;;;;;;;16.15;70.70;96264.25;10450150;27;96705;-67
2022/08/29 06:28:46;;;;;;;8.18;6.50;;;;;;;16.28;70.79;96274.97;10456284;27;98422;-67
2022/08/29 06:33:51;;;;;;;8.52;6.00;;;;;;;16.43;70.28;96277.56;10459573;27;96803;-67
2022/08/29 06:38:55;;;;;;;7.40;6.70;;;;;;;16.60;70.14;96273.72;10444412;27;96824;-67
2022/08/29 06:44:01;;;;;;;6.95;6.18;;;;;;;16.71;69.57;96283.00;10449287;27;96797;-66
2022/08/29 06:49:10;;;;;;;8.85;6.70;;;;;;;16.80;69.18;96283.75;10457845;27;98955;-67
2022/08/29 06:54:13;;;;;;;6.65;6.05;;;;;;;16.96;69.46;96288.78;10457493;27;97377;-67
2022/08/29 06:59:19;;;;;;;10.65;8.52;;;;;;;17.17;70.05;96292.47;10457235;27;97741;-68
2022/08/29 07:04:22;;;;;;;8.10;7.03;;;;;;;17.32;69.04;96293.22;10458521;27;96984;-69
2022/08/29 07:09:29;;;;;;;7.70;6.90;;;;;;;17.41;68.77;96290.47;10466120;27;97490;-69
2022/08/29 07:14:34;;;;;;;8.10;7.10;;;;;;;17.60;69.58;96292.47;10479765;27;97178;-69
2022/08/29 07:19:36;;;;;;;9.60;7.53;;;;;;;17.81;69.65;96290.78;10483055;27;96773;-69
2022/08/29 07:24:39;;;;;;;9.10;7.72;;;;;;;18.04;70.04;96296.66;10477107;27;97060;-69
2022/08/29 07:29:44;;;;;;;9.27;6.63;;;;;;;18.18;68.84;96294.13;10490596;27;97018;-69
2022/08/29 07:34:52;;;;;;;7.97;7.10;;;;;;;18.39;69.81;96298.50;10502789;27;97468;-69
2022/08/29 07:39:58;;;;;;;8.32;6.80;;;;;;;18.60;69.85;96297.59;10502054;27;96792;-68
2022/08/29 07:45:02;;;;;;;8.15;6.65;;;;;;;18.77;68.21;96300.72;10493332;27;96784;-68
2022/08/29 07:50:08;;;;;;;7.82;7.03;;;;;;;18.95;69.11;96292.25;10480038;27;96848;-69
2022/08/29 07:55:11;;;;;;;7.32;6.50;;;;;;;19.11;68.24;96289.25;10482058;27;97991;-68
2022/08/29 08:00:15;;;;;;;7.07;6.22;;;;;;;19.33;68.13;96291.72;10473625;27;98451;-68
2022/08/29 08:05:18;;;;;;;10.05;6.00;;;;;;;19.47;67.86;96292.56;10468430;27;96786;-68
2022/08/29 08:10:22;;;;;;;6.45;5.68;;;;;;;19.58;67.77;96295.44;10471526;27;96678;-68
2022/08/29 08:15:27;;;;;;;8.25;6.30;;;;;;;19.66;67.07;96288.31;10479836;27;96717;-68
2022/08/29 08:20:29;;;;;;;7.55;5.75;;;;;;;19.71;66.71;96293.81;10467238;27;96996;-68
2022/08/29 08:25:32;;;;;;;6.20;5.60;;;;;;;19.89;66.96;96294.06;10461979;27;97043;-68
2022/08/29 08:30:36;;;;;;;8.73;5.85;;;;;;;20.02;66.14;96281.78;10473508;27;96825;-68
2022/08/29 08:35:40;;;;;;;7.82;6.00;;;;;;;20.16;65.94;96278.91;10476198;27;97058;-68
2022/08/29 08:40:49;;;;;;;7.43;6.18;;;;;;;20.30;65.46;96279.69;10465459;27;97677;-68
2022/08/29 08:45:55;;;;;;;7.53;6.32;;;;;;;20.51;65.18;96275.97;10471539;27;96886;-68
2022/08/29 08:51:03;;;;;;;7.03;6.25;;;;;;;20.55;65.07;96285.13;10471885;27;96789;-68
2022/08/29 08:56:12;;;;;;;6.50;5.78;;;;;;;20.67;64.32;96282.66;10474000;27;97303;-68
2022/08/29 09:01:22;;;;;;;7.63;5.53;;;;;;;20.89;64.18;96277.06;10466652;27;98806;-68
2022/08/29 09:06:55;;;;;;;6.03;5.47;;;;;;;21.15;63.76;96291.22;10468594;27;97534;-68
2022/08/29 09:12:08;;;;;;;6.95;5.72;;;;;;;21.33;63.00;96280.72;10466905;27;96840;-68
2022/08/29 09:17:20;;;;;;;6.40;5.80;;;;;;;21.43;62.41;96278.41;10456484;27;98241;-69
2022/08/29 09:22:26;;;;;;;7.38;6.05;;;;;;;21.53;62.24;96285.06;10466737;27;96996;-69
2022/08/29 09:27:35;;;;;;;7.05;5.72;;;;;;;21.63;62.09;96280.91;10469851;27;96820;-68
2022/08/29 09:32:59;;;;;;;8.52;5.78;;;;;;;21.66;61.83;96279.69;10466530;27;97288;-68
2022/08/29 09:38:04;;;;;;;6.88;5.78;;;;;;;21.72;61.52;96281.47;10472694;27;96690;-68
2022/08/29 09:43:07;;;;;;;7.13;6.10;;;;;;;21.85;60.79;96275.25;10460208;27;97588;-68
2022/08/29 09:48:16;;;;;;;6.38;5.55;;;;;;;22.05;60.66;96270.53;10470582;27;96771;-68
2022/08/29 09:53:23;;;;;;;6.45;5.68;;;;;;;22.21;59.52;96263.00;10458343;27;96732;-69
2022/08/29 09:58:31;;;;;;;7.60;5.70;;;;;;;22.37;59.36;96272.25;10480940;27;98077;-68
2022/08/29 10:03:43;;;;;;;9.30;6.05;;;;;;;22.47;58.66;96261.94;10472258;27;96872;-68
2022/08/29 10:08:58;;;;;;;9.30;5.75;;;;;;;22.63;58.32;96263.22;10477285;27;97103;-70
2022/08/29 10:14:06;;;;;;;8.52;6.18;;;;;;;22.79;57.77;96253.78;10471547;27;96948;-68
2022/08/29 10:19:28;;;;;;;6.90;5.65;;;;;;;22.96;57.45;96251.28;10464012;27;96789;-68
2022/08/29 10:24:53;;;;;;;7.28;6.38;;;;;;;23.13;56.21;96248.81;10463345;27;97437;-69
2022/08/29 10:30:05;;;;;;;9.13;7.40;;;;;;;23.29;56.23;96248.22;10456152;27;96829;-68
2022/08/29 10:35:16;;;;;;;8.40;6.93;;;;;;;23.34;55.97;96239.50;10472296;27;96894;-68
2022/08/29 10:40:26;;;;;;;7.40;6.32;;;;;;;23.51;55.60;96226.34;10448333;27;97025;-68
2022/08/29 10:45:38;;;;;;;9.70;6.85;;;;;;;23.78;54.72;96223.25;10466262;27;97011;-68
2022/08/29 10:51:06;;;;;;;6.25;5.18;;;;;;;24.14;53.86;96222.22;10455634;27;97064;-68
2022/08/29 10:56:17;;;;;;;8.13;6.18;;;;;;;24.34;53.31;96216.47;10473618;27;96851;-68
2022/08/29 11:01:36;;;;;;;6.50;5.30;;;;;;;24.58;52.50;96208.41;10484063;27;96877;-68
2022/08/29 11:06:46;;;;;;;8.45;6.03;;;;;;;24.84;51.84;96205.19;10472062;27;98472;-68
2022/08/29 11:12:02;;;;;;;7.25;5.72;;;;;;;25.02;50.97;96203.38;10464341;27;97379;-68
2022/08/29 11:17:12;;;;;;;6.80;5.85;;;;;;;25.17;50.67;96203.66;10465929;27;96723;-69
2022/08/29 11:22:22;;;;;;;5.60;5.07;;;;;;;25.41;50.14;96203.50;10463301;27;96741;-68
2022/08/29 11:27:36;;;;;;;5.85;5.25;;;;;;;25.75;48.76;96206.19;10465063;27;96768;-68
2022/08/29 11:32:50;;;;;;;6.18;5.38;;;;;;;25.94;48.31;96193.34;10467154;27;97944;-68
2022/08/29 11:38:28;;;;;;;4.38;3.97;;;;;;;26.15;47.51;96192.59;10469897;27;97264;-71
2022/08/29 11:43:36;;;;;;;6.82;4.88;;;;;;;26.28;46.74;96186.09;10452174;27;97134;-68
2022/08/29 11:48:42;;;;;;;4.95;4.45;;;;;;;26.29;45.74;96193.06;10466597;27;96838;-68
2022/08/29 11:53:47;;;;;;;6.45;4.50;;;;;;;26.14;45.21;96182.13;10473805;27;97621;-68
2022/08/29 11:58:52;;;;;;;8.85;4.05;;;;;;;26.06;45.58;96166.50;10474514;27;97102;-68
2022/08/29 12:03:56;;;;;;;4.45;4.05;;;;;;;26.16;44.77;96159.38;10473935;27;98267;-68
2022/08/29 12:09:08;;;;;;;4.97;4.00;;;;;;;26.37;43.42;96155.13;10474493;27;97940;-68
2022/08/29 12:14:29;;;;;;;5.13;4.07;;;;;;;26.67;42.48;96151.16;10473639;27;96833;-68
2022/08/29 12:19:47;;;;;;;5.05;3.92;;;;;;;26.84;42.28;96144.91;10456872;27;98386;-68
2022/08/29 12:24:51;;;;;;;4.03;3.63;;;;;;;26.98;42.33;96132.72;10469717;27;96715;-68
2022/08/29 12:29:59;;;;;;;7.22;4.18;;;;;;;27.03;42.08;96137.31;10456029;27;97048;-68
2022/08/29 12:35:20;;;;;;;5.10;4.03;;;;;;;27.11;41.46;96140.34;10455733;27;96687;-68
2022/08/29 12:40:56;;;;;;;3.80;3.25;;;;;;;27.11;41.18;96129.63;10463733;27;97005;-71
2022/08/29 12:46:02;;;;;;;4.13;3.72;;;;;;;27.16;40.76;96130.72;10469105;27;96940;-68
2022/08/29 12:51:06;;;;;;;4.40;3.70;;;;;;;27.20;40.94;96131.84;10479139;27;96727;-68
2022/08/29 12:56:17;;;;;;;4.80;3.53;;;;;;;27.42;40.62;96127.19;10474931;27;96791;-68
2022/08/29 13:01:26;;;;;;;3.88;3.47;;;;;;;27.70;39.99;96127.09;10483824;27;96707;-68
2022/08/29 13:06:30;;;;;;;5.25;3.78;;;;;;;27.94;39.17;96114.06;10468205;27;96949;-68
2022/08/29 13:11:34;;;;;;;3.55;3.20;;;;;;;28.00;38.77;96116.53;10473774;27;97929;-68
2022/08/29 13:16:38;;;;;;;3.78;3.20;;;;;;;28.14;38.46;96108.81;10458652;27;96758;-69
2022/08/29 13:21:42;;;;;;;3.20;2.90;;;;;;;28.23;38.62;96104.53;10466360;27;97429;-71
2022/08/29 13:26:53;;;;;;;3.60;3.08;;;;;;;28.26;37.63;96097.84;10456066;27;96831;-68
2022/08/29 13:32:18;;;;;;;3.40;2.90;;;;;;;28.20;37.50;96086.28;10448406;27;96877;-69
2022/08/29 13:37:29;;;;;;;3.13;2.50;;;;;;;28.41;37.22;96091.72;10473329;27;96731;-68
2022/08/29 13:42:33;;;;;;;3.67;2.90;;;;;;;28.78;36.88;96085.34;10471385;27;97629;-68
2022/08/29 13:47:50;;;;;;;3.00;2.70;;;;;;;29.12;36.11;96074.06;10466700;27;97180;-68
2022/08/29 13:52:54;;;;;;;4.03;2.60;;;;;;;29.25;35.67;96068.16;10478232;27;96779;-68
2022/08/29 13:57:58;;;;;;;2.60;2.40;;;;;;;29.46;34.11;96076.19;10478023;27;96771;-68
2022/08/29 14:03:01;;;;;;;2.95;2.65;;;;;;;29.71;33.41;96064.56;10464279;27;97121;-68
2022/08/29 14:08:06;;;;;;;4.38;2.63;;;;;;;29.75;33.58;96062.97;10481781;27;96831;-69
2022/08/29 14:13:10;;;;;;;2.70;2.50;;;;;;;30.01;32.92;96052.91;10486456;27;96982;-68
2022/08/29 14:18:14;;;;;;;4.00;2.50;;;;;;;30.28;32.17;96046.31;10443149;27;97144;-68
2022/08/29 14:23:18;;;;;;;2.88;2.55;;;;;;;30.40;32.12;96038.69;10463969;27;96748;-68
2022/08/29 14:28:26;;;;;;;3.60;2.53;;;;;;;30.45;31.79;96030.56;10477322;27;96657;-69
2022/08/29 14:33:29;;;;;;;3.70;2.38;;;;;;;30.79;31.33;96029.00;10465251;27;97058;-68
2022/08/29 14:38:32;;;;;;;4.05;2.60;;;;;;;31.32;30.81;96018.28;10460566;27;97181;-69
2022/08/29 14:43:36;;;;;;;2.97;2.65;;;;;;;31.96;30.23;96018.94;10468987;27;96853;-69
2022/08/29 14:48:41;;;;;;;3.00;2.70;;;;;;;32.29;29.45;96004.72;10472741;27;97022;-68
2022/08/29 14:53:44;;;;;;;;;;;;;;;32.50;30.60;96007.94;10463703;27;96794;-68
2022/08/29 14:58:58;;;;;;;4.25;2.63;;;;;;;32.67;28.75;96010.13;10478463;27;97330;-68
2022/08/29 15:04:00;;;;;;;2.78;2.50;;;;;;;32.83;28.49;96013.38;10474237;27;96752;-68
2022/08/29 15:09:03;;;;;;;2.30;2.10;;;;;;;32.75;28.91;96008.63;10471447;27;96734;-69
2022/08/29 15:14:08;;;;;;;2.70;2.30;;;;;;;33.17;28.10;96013.09;10470404;27;98680;-68
2022/08/29 15:19:11;;;;;;;3.17;2.15;;;;;;;33.58;27.66;96016.94;10462164;27;97094;-69
2022/08/29 15:24:34;;;;;;;3.00;2.08;;;;;;;33.81;27.40;96010.56;10464355;27;96784;-68
2022/08/29 15:29:39;;;;;;;2.83;1.90;;;;;;;33.73;27.56;96013.97;10455277;27;96923;-68
2022/08/29 15:34:42;;;;;;;2.78;2.47;;;;;;;33.57;27.43;96012.63;10463294;27;97013;-68
2022/08/29 15:39:45;;;;;;;2.95;2.42;;;;;;;33.39;28.04;96015.13;10465393;27;96838;-68
2022/08/29 15:44:50;;;;;;;2.70;2.50;;;;;;;33.47;26.82;96010.94;10454229;27;96753;-68
2022/08/29 15:49:54;;;;;;;2.63;2.28;;;;;;;34.11;26.65;96007.50;10466710;27;97918;-68
2022/08/29 15:54:57;;;;;;;2.55;2.35;;;;;;;34.37;25.73;95999.63;10485303;27;97235;-68
2022/08/29 16:00:01;;;;;;;3.35;2.50;;;;;;;33.90;26.46;95997.09;10464511;27;99102;-62
2022/08/29 16:21:28;;;;;;;2.58;2.17;;;;;;;33.61;26.93;95995.50;10411268;27;98075;-59
2022/08/29 16:26:32;;;;;;;2.60;2.40;;;;;;;34.18;25.92;95991.66;10407551;27;97928;-60
2022/08/29 16:31:36;;;;;;;3.15;2.17;;;;;;;34.56;25.36;95992.09;10425570;27;97193;-60
2022/08/29 16:36:41;;;;;;;2.30;2.00;;;;;;;35.08;24.55;95993.56;10436135;27;96899;-60
2022/08/29 16:41:44;;;;;;;2.58;2.15;;;;;;;35.49;23.53;95978.91;10438913;27;97319;-60
2022/08/29 16:46:47;;;;;;;2.20;2.00;;;;;;;35.71;23.06;95980.78;10415347;27;96925;-60
2022/08/29 16:51:52;;;;;;;2.50;2.10;;;;;;;35.36;23.58;95979.81;10405464;27;99411;-60
2022/08/29 16:56:55;;;;;;;2.10;1.88;;;;;;;34.82;24.15;95985.28;10406008;27;98579;-61
2022/08/29 17:01:58;;;;;;;2.08;1.88;;;;;;;34.56;24.13;95983.97;10404689;27;97165;-61
2022/08/29 17:07:03;;;;;;;2.65;2.10;;;;;;;34.35;24.56;95985.53;10411307;27;99013;-61
2022/08/29 17:17:08;;;;;;;2.40;2.00;;;;;;;34.36;25.25;95981.72;10418814;27;97548;-60
2022/08/29 17:22:16;;;;;;;2.90;2.10;;;;;;;33.62;26.51;95969.22;10417120;27;98714;-60
2022/08/29 17:27:20;;;;;;;3.72;2.33;;;;;;;32.54;27.52;95973.81;10424406;27;97926;-59
2022/08/29 17:32:25;;;;;;;3.20;2.10;;;;;;;31.56;28.56;95968.91;10401957;27;96948;-60
2022/08/29 17:37:29;;;;;;;;;;;;;;;30.85;29.34;95974.75;10398663;28;97149;-60
2022/08/29 17:42:37;;;;;;;3.15;2.25;;;;;;;30.20;30.18;95974.16;10384580;28;99067;-59
2022/08/29 17:47:40;;;;;;;3.58;2.05;;;;;;;29.58;31.18;95979.84;10397515;28;96835;-62
2022/08/29 17:52:44;;;;;;;3.10;2.50;;;;;;;29.13;31.98;95986.94;10390244;27;98598;-62
2022/08/29 17:57:47;;;;;;;2.40;2.20;;;;;;;28.59;32.75;95999.84;10365022;28;98526;-61
2022/08/29 18:02:51;;;;;;;9.30;7.00;;;;;;;28.12;33.50;95998.16;10380595;28;98998;-59
2022/08/29 18:07:55;;;;;;;4.57;2.97;;;;;;;27.78;34.33;95992.41;10384088;27;99141;-62
2022/08/29 18:12:58;;;;;;;3.95;3.38;;;;;;;27.42;34.78;95997.59;10392452;27;97200;-61
2022/08/29 18:18:01;;;;;;;5.83;3.73;;;;;;;27.20;34.97;96003.13;10379276;28;96870;-60
2022/08/29 18:23:05;;;;;;;4.40;3.73;;;;;;;26.97;35.72;95997.09;10379827;28;98609;-61
2022/08/29 18:28:08;;;;;;;4.97;3.80;;;;;;;26.78;36.35;96017.25;10390870;28;96856;-61
2022/08/29 18:33:11;;;;;;;8.38;5.70;;;;;;;26.40;37.38;96011.03;10389703;28;98657;-61
2022/08/29 18:38:16;;;;;;;4.22;3.55;;;;;;;26.13;37.87;96017.19;10400378;28;97105;-61
2022/08/29 18:43:20;;;;;;;5.70;3.45;;;;;;;25.76;38.79;96024.00;10396956;27;96882;-61
2022/08/29 18:48:23;;;;;;;5.20;3.13;;;;;;;25.51;39.45;96020.97;10385973;28;98715;-61
2022/08/29 18:53:32;;;;;;;5.25;3.35;;;;;;;25.22;39.89;96024.63;10384041;27;97560;-62
2022/08/29 18:58:36;;;;;;;4.30;3.00;;;;;;;24.97;39.84;96037.59;10389113;28;97344;-62
2022/08/29 19:03:39;;;;;;;3.70;3.10;;;;;;;24.86;39.74;96040.13;10373737;28;97614;-61
2022/08/29 19:08:44;;;;;;;4.70;3.13;;;;;;;24.73;39.63;96048.44;10384913;28;98214;-61
2022/08/29 19:13:49;;;;;;;6.20;3.83;;;;;;;24.61;40.23;96047.69;10376029;28;96891;-62
2022/08/29 19:18:54;;;;;;;7.22;5.07;;;;;;;24.57;40.80;96051.88;10371840;28;100340;-61
2022/08/29 19:23:58;;;;;;;4.70;3.65;;;;;;;24.25;41.92;96052.41;10367228;28;98057;-62
2022/08/29 19:29:05;;;;;;;6.45;3.65;;;;;;;24.13;42.13;96061.25;10380727;28;98685;-61
2022/08/29 19:34:08;;;;;;;5.72;3.30;;;;;;;23.73;42.89;96067.38;10370795;28;98404;-62
2022/08/29 19:39:12;;;;;;;8.07;6.07;;;;;;;23.52;43.43;96066.13;10377776;28;97566;-61
2022/08/29 19:44:15;;;;;;;;;;;;;;;23.47;42.60;96068.69;10375476;28;97632;-61
2022/08/29 19:49:17;;;;;;;4.75;4.05;;;;;;;23.29;43.89;96071.47;10375165;28;96881;-62
2022/08/29 19:54:22;;;;;;;5.47;4.25;;;;;;;22.98;44.92;96066.22;10380495;27;96978;-62
2022/08/29 19:59:25;;;;;;;5.53;3.63;;;;;;;22.89;45.58;96072.94;10362918;28;98054;-61
2022/08/29 20:04:29;;;;;;;4.68;3.42;;;;;;;22.74;45.57;96077.91;10382083;27;98933;-61
2022/08/29 20:09:33;;;;;;;7.55;4.28;;;;;;;22.53;46.94;96069.38;10384627;28;96919;-60
2022/08/29 20:14:35;;;;;;;;;;;;;;;22.47;45.93;96080.13;10370828;28;97714;-61
2022/08/29 20:19:39;;;;;;;6.80;3.72;;;;;;;22.22;46.79;96081.88;10372530;28;98415;-60
2022/08/29 20:24:44;;;;;;;5.85;3.50;;;;;;;22.02;47.59;96078.63;10367810;28;97293;-60
2022/08/29 20:29:46;;;;;;;6.60;3.92;;;;;;;21.64;48.35;96077.03;10375202;27;97604;-60
2022/08/29 20:34:49;;;;;;;6.15;3.72;;;;;;;21.61;48.22;96082.78;10390865;28;97187;-60
2022/08/29 20:39:54;;;;;;;5.85;4.25;;;;;;;21.66;47.95;96075.00;10388705;28;97085;-61
2022/08/29 20:44:58;;;;;;;4.78;4.00;;;;;;;21.68;47.73;96088.88;10387773;28;98241;-62
2022/08/29 20:50:01;;;;;;;5.75;3.80;;;;;;;21.64;47.09;96085.84;10372885;28;97615;-60
2022/08/29 20:55:06;;;;;;;5.78;4.50;;;;;;;21.55;48.28;96081.00;10369751;28;97298;-61
2022/08/29 21:00:10;;;;;;;6.47;5.05;;;;;;;21.49;48.84;96088.81;10381183;28;97630;-62
2022/08/29 21:31:40;;;;;;;7.93;4.53;;;;;;;20.10;49.16;96114.53;10413011;27;97978;-63
2022/08/29 21:36:43;;;;;;;6.75;4.03;;;;;;;20.20;50.07;96112.22;10380620;28;99112;-61
2022/08/29 21:41:46;;;;;;;5.30;4.18;;;;;;;20.38;49.99;96133.53;10385445;28;97971;-62
2022/08/29 21:46:51;;;;;;;7.18;4.13;;;;;;;20.36;50.57;96140.09;10389361;28;97258;-58
2022/08/29 21:51:54;;;;;;;123.20;18.55;;;;;;;20.18;50.75;96135.47;10389532;28;97612;-62
2022/08/29 21:56:57;;;;;;;6.72;4.88;;;;;;;20.22;50.61;96141.16;10385024;28;96792;-57
2022/08/29 22:02:02;;;;;;;5.68;4.40;;;;;;;20.22;51.52;96149.13;10384820;28;97027;-56
2022/08/29 22:07:06;;;;;;;6.03;4.32;;;;;;;20.21;50.83;96152.81;10389191;27;96997;-58
2022/08/29 22:12:09;;;;;;;;;;;;;;;20.20;50.63;96141.41;10388045;27;96822;-56
2022/08/29 22:17:15;;;;;;;7.80;4.80;;;;;;;20.15;51.61;96147.34;10386639;27;97670;-56
2022/08/29 22:22:17;;;;;;;9.98;4.78;;;;;;;20.03;52.17;96150.84;10376482;28;97588;-57
2022/08/29 22:27:20;;;;;;;7.22;4.20;;;;;;;19.99;52.08;96164.53;10333878;28;98562;-57
2022/08/29 22:32:24;;;;;;;5.35;4.13;;;;;;;19.89;51.46;96158.84;10367823;28;96722;-57
2022/08/29 22:37:35;;;;;;;6.28;4.40;;;;;;;19.78;52.23;96165.56;10369178;28;96799;-57
2022/08/29 22:42:40;;;;;;;7.55;4.05;;;;;;;19.62;53.86;96166.00;10317108;28;98656;-54
2022/08/29 22:47:46;;;;;;;5.30;4.80;;;;;;;19.45;54.57;96176.19;10345762;28;98535;-57
2022/08/29 22:52:49;;;;;;;4.97;4.47;;;;;;;19.21;55.04;96169.69;10350116;28;97030;-55
2022/08/29 22:57:52;;;;;;;4.82;4.20;;;;;;;19.13;55.04;96183.97;10338227;28;97415;-57
2022/08/29 23:02:56;;;;;;;6.60;4.63;;;;;;;19.01;55.43;96185.56;10340297;28;96777;-57
2022/08/29 23:07:59;;;;;;;4.68;3.72;;;;;;;18.90;55.92;96178.22;10343169;28;96799;-55
2022/08/29 23:13:02;;;;;;;6.35;4.03;;;;;;;18.77;55.19;96190.38;10339246;28;98346;-57
2022/08/29 23:18:06;;;;;;;5.43;4.45;;;;;;;18.62;56.18;96189.72;10332438;28;97622;-56
2022/08/29 23:23:09;;;;;;;5.32;4.03;;;;;;;18.54;55.59;96197.88;10326865;28;96739;-57
2022/08/29 23:28:12;;;;;;;5.18;4.47;;;;;;;18.52;55.88;96205.19;10339022;28;96783;-57
2022/08/29 23:33:17;;;;;;;6.32;4.57;;;;;;;18.55;55.45;96196.84;10325745;28;98359;-55
2022/08/29 23:38:21;;;;;;;5.10;4.55;;;;;;;18.45;56.26;96208.63;10333379;28;97836;-55
2022/08/29 23:43:24;;;;;;;4.75;4.25;;;;;;;18.38;56.46;96207.78;10336373;28;96698;-56
2022/08/29 23:48:29;;;;;;;6.82;4.30;;;;;;;18.31;56.45;96201.66;10318483;28;96832;-55
2022/08/29 23:53:32;;;;;;;6.15;5.03;;;;;;;18.09;58.07;96207.03;10321941;28;97221;-57
2022/08/29 23:58:35;;;;;;;5.25;4.60;;;;;;;17.86;58.81;96199.38;10299587;28;97210;-55
